createdAt,value
2022-10-04T00:03:49.387Z,11.57
2022-10-04T00:08:53.159Z,9.82
2022-10-04T00:13:58.155Z,10.48
2022-10-04T00:19:21.015Z,10.68
2022-10-04T00:24:29.247Z,10.85
2022-10-04T00:29:34.530Z,12.13
2022-10-04T00:34:38.279Z,10.82
2022-10-04T00:39:45.552Z,11.00
2022-10-04T00:44:54.076Z,10.45
2022-10-04T00:50:03.137Z,10.55
2022-10-04T00:55:08.744Z,10.65
2022-10-04T01:00:16.281Z,10.65
2022-10-04T01:05:24.033Z,10.75
2022-10-04T01:10:30.925Z,10.63
2022-10-04T01:15:58.503Z,10.82
2022-10-04T01:21:07.962Z,10.45
2022-10-04T01:26:34.942Z,11.40
2022-10-04T01:31:43.851Z,11.85
2022-10-04T01:36:47.791Z,10.50
2022-10-04T01:42:12.450Z,10.68
2022-10-04T01:52:26.926Z,8.85
2022-10-04T01:57:48.022Z,9.10
2022-10-04T02:02:55.676Z,9.77
2022-10-04T02:08:06.323Z,9.02
2022-10-04T02:13:10.753Z,9.45
2022-10-04T02:18:16.235Z,8.93
2022-10-04T02:23:20.575Z,9.55
2022-10-04T02:28:23.363Z,9.90
2022-10-04T02:33:26.110Z,9.57
2022-10-04T02:38:36.105Z,9.70
2022-10-04T02:43:51.992Z,12.75
2022-10-04T02:49:01.249Z,9.95
2022-10-04T02:54:17.923Z,9.38
2022-10-04T02:59:21.743Z,12.48
2022-10-04T03:04:29.661Z,12.43
2022-10-04T03:09:33.475Z,13.13
2022-10-04T03:14:36.160Z,24.00
2022-10-04T03:19:39.165Z,26.63
2022-10-04T03:24:47.707Z,11.20
2022-10-04T03:29:52.721Z,7.57
2022-10-04T03:34:59.489Z,8.73
2022-10-04T03:40:02.898Z,10.02
2022-10-04T03:45:14.495Z,9.45
2022-10-04T03:50:29.611Z,7.38
2022-10-04T04:00:39.903Z,6.95
2022-10-04T04:05:50.511Z,8.50
2022-10-04T04:10:56.466Z,7.55
2022-10-04T04:16:02.126Z,8.57
2022-10-04T04:21:06.666Z,9.05
2022-10-04T04:26:20.174Z,9.13
2022-10-04T04:31:26.610Z,10.50
2022-10-04T04:36:31.445Z,9.75
2022-10-04T04:41:37.190Z,10.05
2022-10-04T04:46:40.562Z,20.83
2022-10-04T04:51:48.525Z,20.33
2022-10-04T04:56:53.235Z,39.13
2022-10-04T05:01:55.947Z,16.10
2022-10-04T05:07:04.826Z,18.75
2022-10-04T05:12:27.949Z,15.85
2022-10-04T05:17:34.454Z,15.65
2022-10-04T05:22:37.991Z,17.33
2022-10-04T05:27:45.466Z,12.98
2022-10-04T05:32:54.300Z,14.55
2022-10-04T05:38:11.104Z,14.40
2022-10-04T05:43:30.116Z,14.02
2022-10-04T05:48:33.810Z,12.23
2022-10-04T05:53:36.585Z,10.25
2022-10-04T05:59:00.462Z,11.35
2022-10-04T06:04:33.384Z,10.70
2022-10-04T06:09:47.895Z,11.13
2022-10-04T06:15:06.900Z,10.05
2022-10-04T06:20:24.399Z,10.48
2022-10-04T06:25:40.781Z,9.35
2022-10-04T06:31:21.912Z,9.55
2022-10-04T06:36:55.457Z,8.30
2022-10-04T06:42:14.706Z,17.27
2022-10-04T06:47:47.996Z,8.52
2022-10-04T06:53:15.700Z,7.95
2022-10-04T06:58:48.022Z,7.97
2022-10-04T07:04:41.092Z,9.10
2022-10-04T07:10:06.005Z,8.27
2022-10-04T07:15:22.293Z,7.57
2022-10-04T07:20:32.637Z,6.15
2022-10-04T07:25:42.987Z,10.98
2022-10-04T07:30:52.916Z,6.57
2022-10-04T07:36:07.110Z,7.05
2022-10-04T07:41:49.441Z,6.10
2022-10-04T07:46:58.729Z,6.43
2022-10-04T07:52:16.743Z,6.80
2022-10-04T07:57:54.233Z,6.10
2022-10-04T08:03:15.185Z,6.57
2022-10-04T08:08:48.397Z,6.20
2022-10-04T08:14:14.018Z,6.75
2022-10-04T08:19:29.525Z,5.95
2022-10-04T08:25:02.680Z,6.05
2022-10-04T08:30:13.509Z,6.80
2022-10-04T08:35:40.709Z,6.15
2022-10-04T08:41:06.758Z,6.85
2022-10-04T08:46:34.716Z,7.22
2022-10-04T08:51:59.217Z,6.10
2022-10-04T08:57:26.977Z,6.17
2022-10-04T09:02:54.476Z,6.80
2022-10-04T09:08:20.747Z,6.03
2022-10-04T09:13:54.962Z,14.23
2022-10-04T09:19:22.420Z,7.87
2022-10-04T09:24:37.061Z,6.45
2022-10-04T09:30:00.860Z,5.63
2022-10-04T09:35:29.592Z,12.88
2022-10-04T09:40:53.767Z,5.72
2022-10-04T09:46:29.717Z,5.90
2022-10-04T09:51:55.020Z,7.65
2022-10-04T10:02:19.195Z,11.25
2022-10-04T10:07:32.118Z,4.90
2022-10-04T10:13:15.896Z,6.32
2022-10-04T10:18:47.844Z,7.22
2022-10-04T10:24:04.943Z,8.75
2022-10-04T10:29:20.334Z,7.70
2022-10-04T10:40:00.614Z,7.03
2022-10-04T10:45:24.623Z,6.47
2022-10-04T10:51:01.686Z,5.32
2022-10-04T10:56:35.046Z,6.15
2022-10-04T11:01:47.961Z,7.45
2022-10-04T11:07:13.594Z,6.57
2022-10-04T11:12:59.907Z,6.85
2022-10-04T11:18:05.822Z,5.97
2022-10-04T11:23:14.959Z,6.35
2022-10-04T11:28:24.697Z,7.05
2022-10-04T11:34:16.645Z,8.38
2022-10-04T11:39:24.886Z,7.70
2022-10-04T11:44:43.967Z,8.05
2022-10-04T11:49:57.002Z,9.27
2022-10-04T11:55:20.871Z,10.18
2022-10-04T12:00:26.236Z,9.65
2022-10-04T12:11:19.159Z,7.03
2022-10-04T12:16:51.251Z,7.50
2022-10-04T12:22:30.581Z,7.30
2022-10-04T12:27:39.494Z,7.65
2022-10-04T12:33:03.520Z,7.72
2022-10-04T12:38:07.433Z,6.50
2022-10-04T12:43:22.256Z,5.68
2022-10-04T12:48:36.886Z,5.78
2022-10-04T12:54:02.078Z,6.10
2022-10-04T12:59:04.870Z,6.30
2022-10-04T13:04:30.951Z,6.50
2022-10-04T13:09:48.588Z,6.57
2022-10-04T13:15:23.768Z,7.53
2022-10-04T13:20:58.928Z,6.80
2022-10-04T13:26:03.935Z,5.88
2022-10-04T13:31:10.073Z,5.65
2022-10-04T13:36:35.889Z,5.10
2022-10-04T13:42:11.433Z,5.60
2022-10-04T13:47:47.648Z,6.20
2022-10-04T13:53:28.281Z,7.30
2022-10-04T13:58:46.210Z,8.10
2022-10-04T14:04:07.292Z,7.60
2022-10-04T14:09:13.571Z,7.63
2022-10-04T14:14:43.350Z,6.72
2022-10-04T14:20:01.226Z,6.78
2022-10-04T14:25:43.811Z,7.07
2022-10-04T14:31:05.258Z,6.80
2022-10-04T14:36:23.738Z,7.20
2022-10-04T14:42:05.722Z,7.38
2022-10-04T14:47:38.236Z,7.45
2022-10-04T14:53:18.172Z,8.13
2022-10-04T14:58:36.399Z,7.88
2022-10-04T15:03:47.649Z,8.25
2022-10-04T15:08:59.829Z,8.23
2022-10-04T15:14:05.654Z,12.40
2022-10-04T15:19:12.997Z,10.00
2022-10-04T15:24:18.723Z,9.90
2022-10-04T15:29:58.348Z,8.85
2022-10-04T15:35:29.858Z,8.70
2022-10-04T15:40:38.743Z,9.27
2022-10-04T15:46:16.819Z,9.30
2022-10-04T15:52:03.635Z,9.80
2022-10-04T15:57:31.780Z,8.52
2022-10-04T16:02:37.249Z,7.85
2022-10-04T16:12:51.436Z,6.20
2022-10-04T16:18:08.939Z,6.28
2022-10-04T16:23:32.024Z,7.30
2022-10-04T16:28:38.294Z,7.75
2022-10-04T16:33:58.050Z,9.85
2022-10-04T16:39:20.270Z,9.88
2022-10-04T16:44:37.289Z,8.50
2022-10-04T16:49:57.466Z,9.80
2022-10-04T16:55:20.460Z,8.77
2022-10-04T17:00:34.056Z,9.25
2022-10-04T17:05:47.680Z,8.48
2022-10-04T17:10:50.306Z,7.85
2022-10-04T17:16:22.607Z,7.07
2022-10-04T17:21:49.723Z,7.10
2022-10-04T17:26:56.251Z,6.80
2022-10-04T17:32:25.072Z,8.18
2022-10-04T17:37:53.901Z,7.22
2022-10-04T17:43:08.132Z,7.25
2022-10-04T17:49:04.434Z,7.18
2022-10-04T17:55:03.659Z,5.47
2022-10-04T18:00:09.601Z,5.88
2022-10-04T18:05:26.263Z,5.20
2022-10-04T18:10:35.450Z,4.72
2022-10-04T18:16:15.461Z,4.40
2022-10-04T18:21:31.755Z,4.10
2022-10-04T18:26:34.791Z,4.65
2022-10-04T18:31:39.689Z,4.30
2022-10-04T18:37:06.121Z,4.72
2022-10-04T18:42:28.283Z,5.30
2022-10-04T18:47:40.152Z,4.60
2022-10-04T18:53:06.018Z,4.40
2022-10-04T18:58:37.637Z,3.63
2022-10-04T19:03:46.009Z,4.03
2022-10-04T19:09:05.877Z,4.03
2022-10-04T19:14:32.929Z,4.22
2022-10-04T19:19:38.843Z,3.65
2022-10-04T19:25:09.369Z,3.80
2022-10-04T19:30:23.369Z,5.03
2022-10-04T19:36:01.283Z,4.65
2022-10-04T19:41:20.088Z,3.20
2022-10-04T19:46:35.426Z,3.70
2022-10-04T19:56:59.237Z,4.10
2022-10-04T20:02:02.178Z,3.95
2022-10-04T20:07:27.025Z,3.83
2022-10-04T20:17:40.468Z,3.75
2022-10-04T20:23:03.289Z,4.07
2022-10-04T20:28:05.971Z,3.83
2022-10-04T20:33:08.735Z,3.75
2022-10-04T20:38:31.628Z,3.85
2022-10-04T20:43:53.725Z,3.17
2022-10-04T20:48:56.518Z,3.60
2022-10-04T20:54:03.887Z,4.07
2022-10-04T20:59:06.508Z,3.88
2022-10-04T21:04:41.757Z,3.72
2022-10-04T21:09:44.731Z,3.78
2022-10-04T21:15:22.325Z,3.75
2022-10-04T21:20:46.723Z,4.10
2022-10-04T21:25:50.072Z,3.73
2022-10-04T21:30:52.758Z,3.90
2022-10-04T21:35:55.545Z,4.47
2022-10-04T21:40:58.605Z,4.40
2022-10-04T21:46:01.887Z,3.92
2022-10-04T21:51:04.817Z,4.18
2022-10-04T21:56:08.145Z,4.13
2022-10-04T22:01:10.931Z,4.18
2022-10-04T22:06:13.818Z,3.97
2022-10-04T22:11:16.560Z,4.70
2022-10-04T22:16:19.306Z,4.93
2022-10-04T22:21:22.189Z,5.25
2022-10-04T22:26:26.879Z,5.13
2022-10-04T22:31:30.211Z,5.00
2022-10-04T22:36:39.647Z,5.15
2022-10-04T22:41:48.019Z,5.22
2022-10-04T22:46:55.804Z,5.20
2022-10-04T22:52:00.047Z,5.18
2022-10-04T22:57:02.756Z,5.00
2022-10-04T23:02:27.074Z,5.25
2022-10-04T23:07:30.687Z,5.20
2022-10-04T23:12:35.640Z,5.97
2022-10-04T23:17:40.259Z,5.32
2022-10-04T23:22:47.563Z,5.90
2022-10-04T23:27:50.468Z,5.03
2022-10-04T23:32:57.046Z,5.82
2022-10-04T23:38:02.058Z,5.43
2022-10-04T23:43:05.782Z,6.18
2022-10-04T23:48:26.227Z,5.57
2022-10-04T23:53:31.659Z,6.18
